This is the latest recevied weather packets stored in our database for station/object JA6CFI-13. If no packets are shown the sender has not sent any weather packets the latest 10 day(s).
| Time | Temp. | Humidity | Pressure | Rain* | Wind** | Luminosity | Snow |
|---|---|---|---|---|---|---|---|
| 1777263744 | 24.44° C | 60% | 1011.8 hPa | 0 mm | - | - | - |
| 1777263127 | 23.89° C | 62% | 1011.8 hPa | 0 mm | - | - | - |
| 1777262965 | 23.89° C | 62% | 1011.8 hPa | 0 mm | - | - | - |
| 1777262185 | 23.89° C | 60% | 1012 hPa | 0 mm | - | - | - |
| 1777261405 | 23.33° C | 60% | 1012 hPa | 0 mm | - | - | - |
| 1777261328 | 23.33° C | 60% | 1012 hPa | 0 mm | - | - | - |
| 1777260624 | 23.33° C | 60% | 1011.8 hPa | 0 mm | - | - | - |
| 1777259845 | 23.89° C | 59% | 1011.7 hPa | 0 mm | - | - | - |
| 1777259064 | 23.89° C | 60% | 1011.8 hPa | 0 mm | - | - | - |
| 1777258286 | 23.33° C | 60% | 1011.7 hPa | 0 mm | - | - | - |
| 1777257505 | 22.78° C | 61% | 1011.9 hPa | 0 mm | - | - | - |
| 1777256724 | 23.33° C | 62% | 1012.1 hPa | 0 mm | - | - | - |
| 1777255944 | 23.33° C | 62% | 1012.1 hPa | 0 mm | - | - | - |
| 1777255166 | 23.33° C | 61% | 1012 hPa | 0 mm | - | - | - |
| 1777254385 | 23.33° C | 62% | 1011.9 hPa | 0 mm | - | - | - |
| 1777253604 | 23.33° C | 64% | 1011.8 hPa | 0 mm | - | - | - |
| 1777252826 | 22.78° C | 70% | 1011.8 hPa | 0 mm | - | - | - |
| 1777252045 | 22.22° C | 74% | 1011.8 hPa | 0 mm | - | - | - |
| 1777251264 | 22.22° C | 71% | 1011.8 hPa | 0 mm | - | - | - |
| 1777250484 | 21.67° C | 74% | 1011.7 hPa | 0 mm | - | - | - |
| 1777249704 | 20.56° C | 76% | 1011.6 hPa | 0 mm | - | - | - |
| 1777248925 | 20.56° C | 79% | 1011.5 hPa | 0 mm | - | - | - |
| 1777248145 | 19.44° C | 84% | 1011.4 hPa | 0 mm | - | - | - |
| 1777247364 | 18.89° C | 90% | 1011.4 hPa | 0 mm | - | - | - |
| 1777246585 | 17.22° C | 96% | 1011.4 hPa | 0 mm | - | - | - |
* Rain latest hour (hover to see other rain measurements)
** Current wind speed in m/s (hover to see current wind gust speed)